Langdon, New Hampshire
Current Conditions -  °F | °C
As of 5:55 AM on Friday 19 Dec 2014 (Local Time) from KEEN Reporting Station
Overcast Overcast  
Wind Chill: 24°   Ceiling: 2500
Heat Index: 30°   Visibility: 10mi
Dew Point: 23°   Wind: 6mph
Humidity: 75%   Direction: 310°NW
Pressure: 29.91"   Gusts: NA
Location:  43.1141°N, 72.3097°W
Report Text: KEEN 191055Z AUTO 31005KT 10SM OVC025 M01/M05 A2991 RMK AO1
Loading
Personal Weather Stations






























Interactive Weather Map New forecast layout! Learn more

10-Day Weather Forecast

Advertisements
Track Severe Weather on mobile